Time;durP1;ratioP1;P1;durP2;ratioP2;P2;SDS_P1;SDS_P2;PMS_P1;PMS_P2;Temp;Humidity;BMP_temperature;BMP_pressure;BME280_temperature;BME280_humidity;BME280_pressure;Samples;Min_cycle;Max_cycle;Signal;HPM_P1;HPM_P2
2023/08/22 00:00:07;;;;;;;3.20;1.60;;;21.70;93.00;;;;;;4068262;29;20059;-56
2023/08/22 00:02:11;;;;;;;2.65;1.45;;;21.80;93.10;;;;;;4068286;29;20111;-57
2023/08/22 00:04:13;;;;;;;5.22;1.60;;;21.70;93.30;;;;;;4067918;29;20160;-57
2023/08/22 00:06:15;;;;;;;5.57;1.60;;;21.70;93.30;;;;;;4068386;29;20054;-57
2023/08/22 00:08:17;;;;;;;4.07;1.23;;;21.60;93.50;;;;;;4067398;29;20253;-57
2023/08/22 00:10:19;;;;;;;5.60;1.50;;;21.50;93.50;;;;;;4067017;29;20044;-59
2023/08/22 00:12:21;;;;;;;5.53;1.48;;;21.50;93.50;;;;;;4068014;29;20052;-60
2023/08/22 00:14:23;;;;;;;2.08;1.00;;;21.50;93.50;;;;;;4068660;29;20072;-57
2023/08/22 00:16:25;;;;;;;7.25;1.65;;;21.50;93.50;;;;;;4071393;29;20052;-57
2023/08/22 00:18:29;;;;;;;4.13;1.35;;;21.60;93.50;;;;;;4070505;29;20068;-57
2023/08/22 00:20:32;;;;;;;7.30;1.70;;;21.50;93.60;;;;;;4071164;29;20044;-60
2023/08/22 00:22:35;;;;;;;4.57;1.20;;;21.50;93.60;;;;;;4071034;29;20048;-59
2023/08/22 00:24:38;;;;;;;3.88;1.60;;;21.50;93.70;;;;;;4071252;29;20186;-56
2023/08/22 00:26:40;;;;;;;4.55;1.73;;;21.50;93.70;;;;;;4071214;29;20123;-59
2023/08/22 00:28:42;;;;;;;2.95;1.50;;;21.40;93.90;;;;;;4070241;29;20048;-59
2023/08/22 00:30:44;;;;;;;7.75;1.23;;;21.40;93.90;;;;;;4071256;29;20056;-60
2023/08/22 00:32:46;;;;;;;6.68;1.65;;;21.40;93.90;;;;;;4071266;29;20052;-59
2023/08/22 00:34:49;;;;;;;5.53;1.65;;;21.40;93.90;;;;;;4071320;29;20139;-59
2023/08/22 00:36:55;;;;;;;3.20;1.33;;;21.40;94.00;;;;;;4070974;29;20175;-59
2023/08/22 00:38:57;;;;;;;5.68;1.30;;;21.40;93.90;;;;;;4069253;29;20076;-59
2023/08/22 00:40:59;;;;;;;6.55;1.55;;;21.30;94.10;;;;;;4070736;29;20354;-59
2023/08/22 00:43:01;;;;;;;6.75;1.42;;;21.30;94.20;;;;;;4071931;29;20409;-65
2023/08/22 00:45:04;;;;;;;3.65;1.20;;;21.20;94.30;;;;;;4071630;29;20052;-65
2023/08/22 00:47:07;;;;;;;3.83;1.60;;;21.20;94.30;;;;;;4071015;29;20131;-59
2023/08/22 00:49:09;;;;;;;6.05;2.10;;;21.10;94.40;;;;;;4070137;29;20054;-60
2023/08/22 00:51:14;;;;;;;6.32;1.67;;;21.20;94.40;;;;;;4070939;29;20478;-60
2023/08/22 00:53:16;;;;;;;5.97;1.50;;;21.10;94.40;;;;;;4070780;29;20067;-58
2023/08/22 00:55:19;;;;;;;5.53;1.48;;;21.10;94.40;;;;;;4070870;29;20059;-59
2023/08/22 00:57:21;;;;;;;6.35;2.22;;;21.10;94.50;;;;;;4070591;29;20067;-59
2023/08/22 00:59:24;;;;;;;3.20;1.52;;;21.20;94.40;;;;;;4070048;29;20466;-59
2023/08/22 01:01:27;;;;;;;5.70;1.23;;;21.20;94.40;;;;;;4070646;29;20065;-60
2023/08/22 01:03:29;;;;;;;4.80;1.58;;;21.10;94.50;;;;;;4070616;29;20075;-59
2023/08/22 01:05:36;;;;;;;4.50;1.42;;;21.10;94.70;;;;;;4070687;29;20075;-60
2023/08/22 01:07:47;;;;;;;4.70;1.80;;;21.10;94.60;;;;;;4070034;29;20060;-58
2023/08/22 01:09:57;;;;;;;6.30;1.75;;;21.10;94.60;;;;;;4070615;29;20558;-58
2023/08/22 01:12:05;;;;;;;5.40;1.58;;;21.00;94.70;;;;;;4070115;29;20422;-60
2023/08/22 01:14:09;;;;;;;8.88;1.85;;;21.00;94.80;;;;;;4070247;29;20497;-57
2023/08/22 01:16:12;;;;;;;5.22;1.45;;;21.00;94.80;;;;;;4070362;29;20052;-57
2023/08/22 01:18:15;;;;;;;7.47;1.70;;;21.00;94.90;;;;;;4069820;29;20048;-57
2023/08/22 01:20:17;;;;;;;5.68;1.70;;;20.90;94.80;;;;;;4070458;29;20483;-57
2023/08/22 01:22:24;;;;;;;5.18;1.60;;;20.90;95.00;;;;;;4070417;29;20176;-57
2023/08/22 01:24:26;;;;;;;5.88;1.60;;;20.90;95.00;;;;;;4070068;29;20052;-60
2023/08/22 01:26:28;;;;;;;6.32;1.75;;;20.80;95.20;;;;;;4069808;29;20123;-60
2023/08/22 01:28:38;;;;;;;6.25;1.60;;;20.80;95.20;;;;;;4068567;29;20063;-60
2023/08/22 01:30:49;;;;;;;2.70;1.40;;;20.80;95.20;;;;;;4070365;29;20161;-59
2023/08/22 01:32:53;;;;;;;5.28;1.77;;;20.80;95.30;;;;;;4070318;29;20367;-59
2023/08/22 01:35:02;;;;;;;4.15;1.70;;;20.80;95.30;;;;;;4070198;29;20048;-59
2023/08/22 01:37:06;;;;;;;7.80;1.50;;;20.80;95.30;;;;;;4070276;29;20384;-59
2023/08/22 01:39:12;;;;;;;5.55;1.60;;;20.70;95.30;;;;;;4069777;29;20063;-63
2023/08/22 01:41:15;;;;;;;4.10;1.40;;;20.70;95.40;;;;;;4069808;29;20104;-59
2023/08/22 01:43:18;;;;;;;6.68;2.03;;;20.70;95.40;;;;;;4070907;29;20059;-59
2023/08/22 01:45:25;;;;;;;3.53;1.85;;;20.70;95.40;;;;;;4071023;29;20082;-59
2023/08/22 01:47:32;;;;;;;4.55;1.67;;;20.70;95.50;;;;;;4069876;29;20044;-58
2023/08/22 01:49:39;;;;;;;5.40;1.58;;;20.70;95.50;;;;;;4068211;29;20070;-59
2023/08/22 01:51:41;;;;;;;4.38;1.63;;;20.60;95.50;;;;;;4070072;29;20055;-59
2023/08/22 01:53:43;;;;;;;9.02;1.60;;;20.60;95.90;;;;;;4069947;29;20057;-59
2023/08/22 01:55:46;;;;;;;3.42;1.67;;;20.60;95.50;;;;;;4068474;29;20455;-60
2023/08/22 01:57:49;;;;;;;3.83;1.50;;;20.60;95.60;;;;;;4069690;29;20085;-59
2023/08/22 01:59:51;;;;;;;8.70;1.77;;;20.60;95.60;;;;;;4069676;29;20144;-59
2023/08/22 02:01:53;;;;;;;4.35;1.70;;;20.70;95.60;;;;;;4069804;29;20044;-57
2023/08/22 02:04:03;;;;;;;4.90;1.50;;;20.70;95.70;;;;;;4069809;29;20406;-59
2023/08/22 02:06:06;;;;;;;6.32;1.73;;;20.60;95.70;;;;;;4069624;29;20049;-59
2023/08/22 02:08:08;;;;;;;5.68;1.55;;;20.60;95.60;;;;;;4068829;29;20510;-59
2023/08/22 02:10:09;;;;;;;3.28;1.20;;;20.60;95.70;;;;;;4068308;29;20086;-62
2023/08/22 02:12:13;;;;;;;4.55;1.52;;;20.60;95.60;;;;;;4069569;29;20514;-59
2023/08/22 02:14:15;;;;;;;8.75;1.58;;;20.70;95.60;;;;;;4069412;29;20371;-59
2023/08/22 02:16:17;;;;;;;4.53;1.63;;;20.70;95.60;;;;;;4069703;29;20056;-59
2023/08/22 02:18:19;;;;;;;6.45;1.63;;;20.70;95.60;;;;;;4068943;29;20131;-60
2023/08/22 02:20:23;;;;;;;5.18;1.52;;;20.60;95.70;;;;;;4069263;29;20430;-59
2023/08/22 02:22:25;;;;;;;3.88;1.45;;;20.60;95.70;;;;;;4069458;29;20489;-59
2023/08/22 02:24:27;;;;;;;4.20;1.20;;;20.60;95.60;;;;;;4069020;29;20147;-57
2023/08/22 02:26:30;;;;;;;4.88;1.40;;;20.70;95.70;;;;;;4069185;29;20051;-58
2023/08/22 02:28:34;;;;;;;6.35;1.38;;;20.60;95.70;;;;;;4068784;29;20054;-57
2023/08/22 02:30:36;;;;;;;2.83;1.30;;;20.70;95.70;;;;;;4067955;29;20410;-60
2023/08/22 02:32:38;;;;;;;4.35;1.60;;;20.70;95.70;;;;;;4069295;29;20054;-59
2023/08/22 02:34:40;;;;;;;3.97;1.30;;;20.70;95.70;;;;;;4069389;29;20059;-56
2023/08/22 02:36:42;;;;;;;2.65;1.27;;;20.70;95.70;;;;;;4068234;29;20056;-58
2023/08/22 02:38:44;;;;;;;6.53;1.40;;;20.60;95.80;;;;;;4068269;29;20415;-56
2023/08/22 02:40:46;;;;;;;3.78;1.20;;;20.70;95.80;;;;;;4069104;29;20148;-57
2023/08/22 02:42:48;;;;;;;5.88;1.48;;;20.60;95.80;;;;;;4069311;29;20092;-56
2023/08/22 02:44:51;;;;;;;4.15;1.25;;;20.60;95.90;;;;;;4068988;29;20076;-58
2023/08/22 02:46:53;;;;;;;7.47;1.90;;;20.60;96.20;;;;;;4067856;29;20048;-58
2023/08/22 02:48:56;;;;;;;4.32;1.20;;;20.50;96.00;;;;;;4068449;29;20048;-59
2023/08/22 02:50:58;;;;;;;4.70;1.50;;;20.50;96.10;;;;;;4069020;29;20432;-58
2023/08/22 02:53:00;;;;;;;6.00;1.55;;;20.50;96.10;;;;;;4068759;29;20075;-58
2023/08/22 02:55:03;;;;;;;8.95;1.80;;;20.50;96.00;;;;;;4068897;29;20056;-58
2023/08/22 02:57:05;;;;;;;3.00;1.45;;;20.50;96.00;;;;;;4068932;29;20410;-59
2023/08/22 02:59:07;;;;;;;3.88;1.60;;;20.50;96.20;;;;;;4068024;29;20048;-59
2023/08/22 03:01:10;;;;;;;5.85;1.63;;;20.40;96.20;;;;;;4068907;29;20055;-57
2023/08/22 03:03:12;;;;;;;3.17;1.30;;;20.40;96.20;;;;;;4068736;29;20052;-59
2023/08/22 03:05:15;;;;;;;4.85;1.40;;;20.40;96.20;;;;;;4068690;29;20123;-59
2023/08/22 03:07:17;;;;;;;6.25;1.60;;;20.40;96.10;;;;;;4068544;29;20529;-59
2023/08/22 03:09:19;;;;;;;3.88;1.38;;;20.50;96.10;;;;;;4068092;29;20048;-56
2023/08/22 03:11:21;;;;;;;7.00;1.40;;;20.50;96.10;;;;;;4068406;29;20406;-59
2023/08/22 03:13:28;;;;;;;4.50;1.27;;;20.50;96.10;;;;;;4068820;29;20044;-57
2023/08/22 03:15:30;;;;;;;4.20;1.33;;;20.50;96.10;;;;;;4068584;29;20095;-57
2023/08/22 03:17:33;;;;;;;4.75;1.33;;;20.50;96.10;;;;;;4068418;29;20059;-57
2023/08/22 03:19:36;;;;;;;4.63;1.48;;;20.50;96.00;;;;;;4067982;29;20052;-57
2023/08/22 03:21:38;;;;;;;2.60;1.30;;;20.50;96.20;;;;;;4068063;29;20047;-59
2023/08/22 03:23:40;;;;;;;5.93;1.35;;;20.40;96.10;;;;;;4068751;29;20323;-59
2023/08/22 03:25:42;;;;;;;4.13;1.30;;;20.50;96.10;;;;;;4068574;29;20090;-59
2023/08/22 03:27:44;;;;;;;5.28;1.33;;;20.40;96.10;;;;;;4068294;29;20047;-61
2023/08/22 03:29:47;;;;;;;3.58;1.45;;;20.40;96.10;;;;;;4067703;29;20491;-57
2023/08/22 03:31:49;;;;;;;4.93;1.48;;;20.50;96.00;;;;;;4068296;29;20096;-58
2023/08/22 03:33:52;;;;;;;3.85;1.38;;;20.50;96.20;;;;;;4068519;29;20529;-59
2023/08/22 03:35:56;;;;;;;2.78;1.50;;;20.50;96.20;;;;;;4068123;29;20044;-58
2023/08/22 03:37:58;;;;;;;2.72;1.20;;;20.50;96.20;;;;;;4068202;29;20139;-59
2023/08/22 03:40:01;;;;;;;4.13;1.15;;;20.40;96.30;;;;;;4067920;29;20080;-59
2023/08/22 03:42:03;;;;;;;5.10;1.85;;;20.40;96.50;;;;;;4068303;29;20056;-59
2023/08/22 03:44:05;;;;;;;3.60;1.88;;;20.40;96.40;;;;;;4068096;29;20067;-59
2023/08/22 03:46:07;;;;;;;6.75;1.88;;;20.40;96.30;;;;;;4068403;29;20045;-59
2023/08/22 03:48:10;;;;;;;9.10;1.65;;;20.50;96.40;;;;;;4067352;29;20051;-59
2023/08/22 03:50:13;;;;;;;4.55;1.40;;;20.50;96.20;;;;;;4067885;29;20056;-59
2023/08/22 03:52:15;;;;;;;3.60;1.40;;;20.50;96.30;;;;;;4068393;29;20079;-58
2023/08/22 03:54:17;;;;;;;6.13;1.55;;;20.50;96.20;;;;;;4068148;29;20160;-59
2023/08/22 03:56:19;;;;;;;6.53;1.63;;;20.60;96.20;;;;;;4067950;29;20127;-59
2023/08/22 03:58:21;;;;;;;7.78;1.98;;;20.50;96.20;;;;;;4067700;29;20052;-59
2023/08/22 04:00:24;;;;;;;6.13;1.50;;;20.50;96.20;;;;;;4067954;29;20056;-58
2023/08/22 04:02:26;;;;;;;5.65;1.92;;;20.60;96.20;;;;;;4068323;29;20330;-59
2023/08/22 04:04:29;;;;;;;3.92;1.20;;;20.50;96.20;;;;;;4067810;29;20048;-57
2023/08/22 04:06:32;;;;;;;5.22;1.35;;;20.60;96.30;;;;;;4067837;29;20470;-56
2023/08/22 04:08:35;;;;;;;3.40;1.20;;;20.60;96.20;;;;;;4067482;29;20040;-56
2023/08/22 04:10:37;;;;;;;4.97;1.45;;;20.60;96.20;;;;;;4068093;29;20483;-56
2023/08/22 04:12:39;;;;;;;3.58;1.52;;;20.60;96.20;;;;;;4067952;29;20061;-58
2023/08/22 04:14:41;;;;;;;3.63;1.45;;;20.60;96.30;;;;;;4066795;29;20040;-58
2023/08/22 04:16:43;;;;;;;5.07;1.50;;;20.60;96.30;;;;;;4067936;29;20048;-58
2023/08/22 04:18:45;;;;;;;4.60;1.15;;;20.60;96.30;;;;;;4067498;29;20062;-58
2023/08/22 04:20:47;;;;;;;7.30;1.95;;;20.50;96.30;;;;;;4067615;29;20135;-58
2023/08/22 04:22:51;;;;;;;7.78;1.70;;;20.60;96.30;;;;;;4068061;29;20082;-59
2023/08/22 04:24:53;;;;;;;4.82;1.30;;;20.50;96.40;;;;;;4067878;29;20048;-58
2023/08/22 04:26:56;;;;;;;5.93;1.65;;;20.50;96.30;;;;;;4068054;29;20497;-58
2023/08/22 04:28:58;;;;;;;4.18;1.75;;;20.50;96.40;;;;;;4067231;29;20116;-58
2023/08/22 04:31:00;;;;;;;8.02;1.73;;;20.50;96.30;;;;;;4067962;29;20099;-58
2023/08/22 04:33:03;;;;;;;7.85;1.60;;;20.50;96.30;;;;;;4068025;29;20052;-59
2023/08/22 04:35:06;;;;;;;5.15;1.55;;;20.50;96.30;;;;;;4067448;29;20048;-56
2023/08/22 04:37:08;;;;;;;7.75;1.98;;;20.60;96.30;;;;;;4067701;29;20513;-56
2023/08/22 04:39:11;;;;;;;6.63;2.25;;;20.60;96.30;;;;;;4067309;29;20080;-59
2023/08/22 04:41:13;;;;;;;7.20;1.60;;;20.60;96.30;;;;;;4067910;29;20507;-58
2023/08/22 04:43:15;;;;;;;5.43;1.67;;;20.50;96.40;;;;;;4067767;29;20075;-59
2023/08/22 04:45:17;;;;;;;6.82;1.70;;;20.50;96.40;;;;;;4067763;29;20048;-58
2023/08/22 04:47:19;;;;;;;4.50;1.60;;;20.60;96.30;;;;;;4067811;29;20054;-58
2023/08/22 04:49:21;;;;;;;5.30;1.75;;;20.60;96.30;;;;;;4066849;29;20413;-58
2023/08/22 04:51:23;;;;;;;5.60;1.67;;;20.60;96.30;;;;;;4067856;29;20052;-58
2023/08/22 04:53:26;;;;;;;3.88;1.38;;;20.60;96.40;;;;;;4067861;29;20479;-58
2023/08/22 04:55:29;;;;;;;6.88;1.67;;;20.60;96.30;;;;;;4067493;29;20040;-58
2023/08/22 04:57:31;;;;;;;5.35;1.63;;;20.50;96.30;;;;;;4067843;29;20055;-58
2023/08/22 04:59:33;;;;;;;6.57;1.85;;;20.50;96.40;;;;;;4067025;29;20052;-58
2023/08/22 05:01:36;;;;;;;5.97;2.08;;;20.50;96.30;;;;;;4070518;29;20075;-58
2023/08/22 05:03:38;;;;;;;5.40;1.95;;;20.50;96.40;;;;;;4070210;29;20083;-58
2023/08/22 05:05:40;;;;;;;5.28;1.60;;;20.40;96.40;;;;;;4070376;29;20147;-61
2023/08/22 05:07:42;;;;;;;4.55;1.70;;;20.50;96.50;;;;;;4070357;29;20112;-61
2023/08/22 05:09:44;;;;;;;7.25;1.83;;;20.40;96.40;;;;;;4069830;29;20048;-61
2023/08/22 05:11:49;;;;;;;9.75;2.10;;;20.40;96.50;;;;;;4070386;29;20391;-60
2023/08/22 05:13:51;;;;;;;6.68;1.90;;;20.40;96.50;;;;;;4070368;29;20135;-61
2023/08/22 05:15:53;;;;;;;11.10;2.13;;;20.40;96.50;;;;;;4070187;29;20490;-61
2023/08/22 05:17:55;;;;;;;5.80;1.42;;;20.50;96.50;;;;;;4070126;29;20048;-60
2023/08/22 05:19:57;;;;;;;11.70;1.80;;;20.50;96.50;;;;;;4069562;29;20054;-61
2023/08/22 05:21:59;;;;;;;4.97;1.73;;;20.50;96.80;;;;;;4070059;29;20055;-61
2023/08/22 05:24:01;;;;;;;9.13;2.35;;;20.40;96.90;;;;;;4070082;29;20048;-60
2023/08/22 05:26:03;;;;;;;6.70;1.75;;;20.50;96.90;;;;;;4070073;29;20107;-58
2023/08/22 05:28:08;;;;;;;4.03;1.52;;;20.50;96.80;;;;;;4070199;29;20048;-58
2023/08/22 05:30:10;;;;;;;11.43;2.47;;;20.60;96.90;;;;;;4069622;29;20048;-61
2023/08/22 05:32:12;;;;;;;11.98;1.85;;;20.60;96.90;;;;;;4069903;29;20123;-60
2023/08/22 05:34:14;;;;;;;10.77;2.20;;;20.50;97.00;;;;;;4070136;29;20525;-60
2023/08/22 05:36:16;;;;;;;9.93;2.35;;;20.50;97.00;;;;;;4069927;29;20056;-60
2023/08/22 05:38:18;;;;;;;8.23;1.95;;;20.50;97.00;;;;;;4069904;29;20123;-61
2023/08/22 05:40:21;;;;;;;7.75;2.00;;;20.50;97.00;;;;;;4069404;29;20466;-61
2023/08/22 05:42:23;;;;;;;7.15;2.05;;;20.50;97.00;;;;;;4070132;29;20119;-60
2023/08/22 05:44:29;;;;;;;8.88;2.28;;;20.50;97.00;;;;;;4069918;29;20074;-60
2023/08/22 05:46:31;;;;;;;4.60;1.95;;;20.60;97.00;;;;;;4068601;29;20048;-60
2023/08/22 05:48:33;;;;;;;7.80;2.05;;;20.60;97.00;;;;;;4069293;29;20069;-61
2023/08/22 05:50:35;;;;;;;9.30;2.20;;;20.60;97.00;;;;;;4068647;29;20086;-61
2023/08/22 05:52:37;;;;;;;9.30;2.42;;;20.60;96.90;;;;;;4069927;29;20131;-60
2023/08/22 05:54:40;;;;;;;11.35;2.78;;;20.60;96.90;;;;;;4070052;29;20075;-60
2023/08/22 05:56:42;;;;;;;8.18;2.30;;;20.70;96.90;;;;;;4069618;29;20072;-61
2023/08/22 05:58:44;;;;;;;5.97;2.10;;;20.70;96.90;;;;;;4069124;29;20272;-58
2023/08/22 06:00:48;;;;;;;10.35;2.47;;;20.70;96.80;;;;;;4069172;29;20417;-59
2023/08/22 06:02:50;;;;;;;5.63;2.05;;;20.70;96.80;;;;;;4069872;29;20091;-57
2023/08/22 06:04:52;;;;;;;12.77;2.20;;;20.70;96.90;;;;;;4069464;29;20052;-56
2023/08/22 06:06:54;;;;;;;6.47;1.92;;;20.70;96.80;;;;;;4069555;29;20099;-57
2023/08/22 06:08:56;;;;;;;10.43;2.63;;;20.80;96.90;;;;;;4069022;29;20585;-58
2023/08/22 06:10:58;;;;;;;8.05;2.47;;;20.80;96.70;;;;;;4069194;29;20052;-57
2023/08/22 06:13:00;;;;;;;8.18;2.83;;;20.90;96.70;;;;;;4069267;29;20075;-57
2023/08/22 06:15:03;;;;;;;7.25;2.53;;;20.90;96.50;;;;;;4068977;29;20135;-57
2023/08/22 06:17:07;;;;;;;10.82;2.80;;;20.90;96.40;;;;;;4069353;29;20052;-57
2023/08/22 06:19:09;;;;;;;7.57;2.70;;;20.90;96.70;;;;;;4069060;29;20145;-58
2023/08/22 06:21:11;;;;;;;9.20;2.38;;;20.90;96.60;;;;;;4069248;29;20118;-58
2023/08/22 06:23:13;;;;;;;9.23;1.88;;;21.00;96.40;;;;;;4069448;29;20063;-60
2023/08/22 06:25:15;;;;;;;7.80;2.28;;;21.10;96.40;;;;;;4069115;29;20051;-61
2023/08/22 06:27:18;;;;;;;4.95;2.08;;;21.20;96.30;;;;;;4069491;29;20048;-60
2023/08/22 06:29:20;;;;;;;13.57;2.85;;;21.20;96.20;;;;;;4068736;29;20044;-60
2023/08/22 06:31:22;;;;;;;11.40;2.75;;;21.20;96.20;;;;;;4068740;29;20079;-61
2023/08/22 06:33:25;;;;;;;15.85;2.72;;;21.20;96.30;;;;;;4069343;29;20519;-60
2023/08/22 06:35:28;;;;;;;11.50;2.45;;;21.30;96.20;;;;;;4068002;29;20048;-61
2023/08/22 06:37:30;;;;;;;15.15;2.92;;;21.30;96.20;;;;;;4069179;29;20439;-62
2023/08/22 06:39:32;;;;;;;7.60;2.97;;;21.40;96.20;;;;;;4068290;29;20529;-63
2023/08/22 06:41:35;;;;;;;20.75;3.55;;;21.40;96.10;;;;;;4068800;29;20060;-61
2023/08/22 06:43:38;;;;;;;11.48;2.95;;;21.50;96.10;;;;;;4068952;29;20407;-62
2023/08/22 06:45:40;;;;;;;9.90;3.05;;;21.60;95.70;;;;;;4068351;29;20051;-62
2023/08/22 06:47:42;;;;;;;11.45;2.95;;;21.60;95.80;;;;;;4068891;29;20056;-62
2023/08/22 06:49:46;;;;;;;11.32;2.97;;;21.60;95.90;;;;;;4068095;29;20044;-62
2023/08/22 06:51:48;;;;;;;12.95;3.28;;;21.70;95.80;;;;;;4068587;29;20048;-62
2023/08/22 06:53:54;;;;;;;16.17;3.55;;;21.70;95.70;;;;;;4068640;29;20542;-62
2023/08/22 06:55:56;;;;;;;9.30;3.13;;;21.70;95.70;;;;;;4068632;29;20483;-60
2023/08/22 06:57:58;;;;;;;13.93;3.88;;;21.70;95.50;;;;;;4068759;29;20058;-60
2023/08/22 07:00:07;;;;;;;15.73;3.42;;;21.80;95.50;;;;;;4067862;29;20470;-58
2023/08/22 07:02:09;;;;;;;10.82;3.47;;;21.80;95.30;;;;;;4069262;29;20454;-59
2023/08/22 07:04:11;;;;;;;11.07;4.18;;;21.80;95.50;;;;;;4069444;29;20076;-59
2023/08/22 07:06:22;;;;;;;15.18;3.67;;;21.90;95.40;;;;;;4068769;29;20066;-61
2023/08/22 07:08:24;;;;;;;10.80;3.25;;;21.90;95.40;;;;;;4067751;29;20048;-62
2023/08/22 07:10:27;;;;;;;9.52;3.13;;;21.90;95.20;;;;;;4067709;29;20059;-62
2023/08/22 07:12:29;;;;;;;5.43;2.40;;;21.90;95.20;;;;;;4068295;29;20090;-66
2023/08/22 07:14:31;;;;;;;11.38;3.17;;;21.90;95.20;;;;;;4068285;29;20044;-62
2023/08/22 07:16:33;;;;;;;7.90;2.63;;;21.90;95.20;;;;;;4068846;29;20068;-62
2023/08/22 07:18:35;;;;;;;12.02;2.88;;;21.90;95.20;;;;;;4069220;29;20422;-62
2023/08/22 07:20:37;;;;;;;13.20;3.03;;;21.90;95.10;;;;;;4068016;29;20090;-61
2023/08/22 07:22:40;;;;;;;15.60;2.95;;;21.90;95.10;;;;;;4068111;29;20104;-61
2023/08/22 07:24:43;;;;;;;6.63;2.45;;;21.90;95.20;;;;;;4068686;29;20052;-61
2023/08/22 07:26:45;;;;;;;9.60;2.45;;;21.90;95.10;;;;;;4068284;29;20062;-62
2023/08/22 07:28:47;;;;;;;11.98;3.13;;;21.90;95.20;;;;;;4068061;29;20478;-62
2023/08/22 07:30:49;;;;;;;7.63;2.80;;;22.00;95.00;;;;;;4067830;29;20044;-62
2023/08/22 07:32:51;;;;;;;6.65;2.88;;;22.00;95.10;;;;;;4068429;29;20056;-61
2023/08/22 07:34:54;;;;;;;9.73;3.20;;;22.00;95.00;;;;;;4067053;29;20052;-59
2023/08/22 07:36:56;;;;;;;11.05;2.75;;;22.10;95.10;;;;;;4068288;29;20063;-59
2023/08/22 07:38:59;;;;;;;8.93;3.35;;;22.20;94.90;;;;;;4067550;29;20414;-60
2023/08/22 07:41:01;;;;;;;7.90;3.08;;;22.30;94.90;;;;;;4068063;29;20050;-59
2023/08/22 07:43:03;;;;;;;11.38;2.85;;;22.30;94.60;;;;;;4067727;29;20087;-59
2023/08/22 07:45:07;;;;;;;8.15;3.08;;;22.40;94.50;;;;;;4068247;29;20332;-59
2023/08/22 07:47:09;;;;;;;48.92;10.98;;;22.60;94.60;;;;;;4068137;29;20092;-59
2023/08/22 07:49:11;;;;;;;21.65;4.68;;;22.70;94.40;;;;;;4067752;29;20052;-60
2023/08/22 07:51:13;;;;;;;27.38;6.70;;;22.80;94.30;;;;;;4067965;29;20048;-62
2023/08/22 07:53:16;;;;;;;32.70;6.63;;;22.90;94.50;;;;;;4067997;29;20052;-62
2023/08/22 07:55:19;;;;;;;32.55;7.63;;;22.90;94.20;;;;;;4068217;29;20409;-62
2023/08/22 07:57:21;;;;;;;13.93;4.13;;;23.00;94.10;;;;;;4067758;29;20044;-61
2023/08/22 07:59:23;;;;;;;17.92;4.35;;;23.10;93.90;;;;;;4067685;29;20130;-62
2023/08/22 08:01:25;;;;;;;9.77;3.42;;;23.20;93.90;;;;;;4068199;29;20078;-62
2023/08/22 08:03:27;;;;;;;9.32;2.90;;;23.20;93.80;;;;;;4069227;29;20082;-58
2023/08/22 08:05:30;;;;;;;13.90;3.13;;;23.30;93.40;;;;;;4069709;29;20080;-59
2023/08/22 08:07:32;;;;;;;15.38;3.63;;;23.30;93.40;;;;;;4070114;29;20154;-62
2023/08/22 08:09:34;;;;;;;14.27;3.13;;;23.30;93.40;;;;;;4067651;29;20135;-62
2023/08/22 08:11:38;;;;;;;12.50;2.53;;;23.40;93.30;;;;;;4067591;29;20234;-62
2023/08/22 08:13:41;;;;;;;11.65;2.83;;;23.40;93.50;;;;;;4068183;29;20052;-62
2023/08/22 08:15:43;;;;;;;10.55;2.78;;;23.50;93.30;;;;;;4068006;29;20119;-62
2023/08/22 08:17:45;;;;;;;9.90;2.80;;;23.60;93.00;;;;;;4068202;29;20063;-63
2023/08/22 08:19:48;;;;;;;27.13;3.42;;;23.60;93.00;;;;;;4067521;29;20144;-63
2023/08/22 08:21:50;;;;;;;12.80;3.03;;;23.70;92.80;;;;;;4067107;29;20075;-62
2023/08/22 08:23:52;;;;;;;11.75;3.53;;;23.70;92.70;;;;;;4068358;29;20052;-62
2023/08/22 08:25:54;;;;;;;14.00;2.92;;;23.70;92.90;;;;;;4067894;29;20180;-62
2023/08/22 08:27:58;;;;;;;14.15;3.35;;;23.90;93.00;;;;;;4068533;29;20461;-62
2023/08/22 08:30:04;;;;;;;12.93;2.92;;;23.90;92.70;;;;;;4067777;29;20153;-62
2023/08/22 08:32:07;;;;;;;14.55;3.38;;;24.00;92.80;;;;;;4068969;29;20052;-62
2023/08/22 08:34:09;;;;;;;15.85;3.03;;;24.10;92.80;;;;;;4068261;29;20055;-62
2023/08/22 08:36:10;;;;;;;8.88;3.33;;;24.10;92.70;;;;;;4070997;29;20048;-61
2023/08/22 08:38:12;;;;;;;9.80;3.10;;;24.20;92.20;;;;;;4070992;29;20554;-61
2023/08/22 08:40:15;;;;;;;16.50;2.83;;;24.20;92.30;;;;;;4070209;29;20055;-63
2023/08/22 08:42:17;;;;;;;14.68;3.30;;;24.30;92.10;;;;;;4071222;29;20051;-62
2023/08/22 08:44:22;;;;;;;19.45;3.53;;;24.30;92.30;;;;;;4071473;29;20554;-62
2023/08/22 08:46:25;;;;;;;;;;;24.40;92.30;;;;;;4073220;29;20082;-66
2023/08/22 08:48:29;;;;;;;15.32;2.80;;;24.50;92.20;;;;;;4075321;29;20362;-63
2023/08/22 08:50:32;;;;;;;21.83;3.40;;;24.50;91.90;;;;;;4076864;29;20080;-60
2023/08/22 08:52:34;;;;;;;8.57;2.60;;;24.50;91.70;;;;;;4075969;29;20059;-61
2023/08/22 08:54:36;;;;;;;12.93;2.90;;;24.50;91.60;;;;;;4073158;29;20075;-62
2023/08/22 08:56:40;;;;;;;9.52;2.60;;;24.60;91.70;;;;;;4073143;29;20089;-62
2023/08/22 08:58:43;;;;;;;12.68;3.17;;;24.70;91.70;;;;;;4072788;29;20095;-59
2023/08/22 09:00:47;;;;;;;12.93;2.85;;;24.80;91.60;;;;;;4070656;29;20107;-59
2023/08/22 09:02:49;;;;;;;11.50;3.00;;;24.90;91.40;;;;;;4071102;29;20095;-59
2023/08/22 09:04:51;;;;;;;9.25;2.97;;;24.90;91.30;;;;;;4071172;29;20386;-60
2023/08/22 09:06:53;;;;;;;12.52;2.88;;;24.90;90.90;;;;;;4070994;29;20052;-59
2023/08/22 09:09:07;;;;;;;6.90;2.55;;;25.00;90.90;;;;;;4070696;29;20059;-59
2023/08/22 09:11:09;;;;;;;17.40;3.00;;;25.10;91.00;;;;;;4070330;29;20052;-60
2023/08/22 09:13:11;;;;;;;9.73;2.22;;;25.10;90.90;;;;;;4070890;29;20094;-59
2023/08/22 09:15:18;;;;;;;14.25;2.47;;;25.10;90.70;;;;;;4062341;29;20415;-60
2023/08/22 09:17:21;;;;;;;10.30;2.97;;;25.10;90.10;;;;;;4057124;29;20045;-59
2023/08/22 09:19:23;;;;;;;20.42;3.10;;;25.10;90.60;;;;;;4056360;29;20048;-59
2023/08/22 09:21:25;;;;;;;10.65;2.35;;;25.30;90.80;;;;;;4056753;29;20049;-60
2023/08/22 09:23:28;;;;;;;11.20;2.67;;;25.30;90.60;;;;;;4057118;29;20048;-60
2023/08/22 09:25:39;;;;;;;12.73;2.38;;;25.40;90.80;;;;;;4058062;29;20044;-61
2023/08/22 09:27:41;;;;;;;16.38;3.42;;;25.40;90.40;;;;;;4058513;29;20143;-60
2023/08/22 09:29:43;;;;;;;15.43;2.55;;;25.40;90.40;;;;;;4056129;29;20055;-59
2023/08/22 09:31:45;;;;;;;22.85;2.72;;;25.50;90.60;;;;;;4055533;29;20044;-60
2023/08/22 09:33:50;;;;;;;15.90;2.90;;;25.60;90.50;;;;;;4054929;29;20403;-60
2023/08/22 09:35:56;;;;;;;10.43;2.70;;;25.60;89.80;;;;;;4055120;29;20053;-62
2023/08/22 09:38:05;;;;;;;7.32;1.80;;;25.70;89.90;;;;;;4056663;29;20045;-59
2023/08/22 09:40:09;;;;;;;11.32;2.22;;;25.70;89.40;;;;;;4058928;29;20111;-60
2023/08/22 09:42:11;;;;;;;11.05;2.53;;;25.70;88.80;;;;;;4060057;29;20084;-60
2023/08/22 09:44:14;;;;;;;7.38;2.00;;;25.80;88.90;;;;;;4060083;29;20059;-59
2023/08/22 09:46:18;;;;;;;8.85;2.38;;;25.80;88.30;;;;;;4056824;29;20044;-60
2023/08/22 09:48:24;;;;;;;9.13;2.08;;;25.90;88.70;;;;;;4059949;29;20049;-60
2023/08/22 09:50:36;;;;;;;16.75;2.58;;;25.90;89.00;;;;;;4054946;29;20049;-60
2023/08/22 09:52:39;;;;;;;10.95;2.53;;;26.00;88.80;;;;;;4057834;29;20071;-60
2023/08/22 09:54:43;;;;;;;12.27;2.20;;;26.20;88.40;;;;;;4060543;29;20064;-60
2023/08/22 09:56:46;;;;;;;9.93;1.73;;;26.10;87.60;;;;;;4060076;29;20467;-60
2023/08/22 09:58:49;;;;;;;7.50;1.77;;;26.20;87.40;;;;;;4059755;29;20052;-64
2023/08/22 10:00:52;;;;;;;8.55;2.25;;;26.10;86.40;;;;;;4059989;29;20052;-60
2023/08/22 10:02:55;;;;;;;6.55;1.83;;;26.30;87.20;;;;;;4059070;29;20487;-60
2023/08/22 10:04:57;;;;;;;6.07;1.67;;;26.40;86.80;;;;;;4058180;29;20055;-61
2023/08/22 10:07:01;;;;;;;12.52;1.98;;;26.50;87.10;;;;;;4059020;29;20422;-62
2023/08/22 10:09:07;;;;;;;11.93;2.27;;;26.50;87.20;;;;;;4059273;29;20048;-61
2023/08/22 10:11:11;;;;;;;8.93;1.83;;;26.60;87.10;;;;;;4058950;29;20555;-60
2023/08/22 10:13:16;;;;;;;14.48;2.13;;;26.60;86.40;;;;;;4060869;29;20063;-61
2023/08/22 10:15:18;;;;;;;9.82;2.22;;;26.70;87.00;;;;;;4072651;29;20103;-61
2023/08/22 10:17:24;;;;;;;8.10;2.08;;;26.60;85.40;;;;;;4075578;29;20051;-60
2023/08/22 10:19:27;;;;;;;8.30;1.92;;;26.60;85.10;;;;;;4073810;29;20052;-61
2023/08/22 10:21:40;;;;;;;5.70;1.73;;;26.70;85.70;;;;;;4071143;29;20048;-61
2023/08/22 10:23:58;;;;;;;7.47;1.73;;;26.70;84.90;;;;;;4071305;29;20048;-60
2023/08/22 10:26:02;;;;;;;13.15;2.22;;;26.70;85.40;;;;;;4074210;29;20048;-60
2023/08/22 10:28:05;;;;;;;12.43;1.98;;;26.80;85.10;;;;;;4075757;29;20068;-60
2023/08/22 10:30:20;;;;;;;5.90;1.55;;;26.90;85.30;;;;;;4074694;29;20115;-60
2023/08/22 10:32:23;;;;;;;6.80;1.60;;;26.90;83.70;;;;;;4075401;29;20052;-60
2023/08/22 10:34:25;;;;;;;6.18;1.73;;;26.90;83.60;;;;;;4073997;29;20056;-60
2023/08/22 10:36:27;;;;;;;8.10;1.50;;;26.90;83.10;;;;;;4072846;29;20056;-60